createdAt,value
2023-06-20T00:00:01.630Z,59.81
2023-06-20T00:05:00.663Z,59.68
2023-06-20T00:10:00.742Z,58.94
2023-06-20T00:15:00.609Z,58.89
2023-06-20T00:20:00.632Z,59.41
2023-06-20T00:25:04.642Z,59.62
2023-06-20T00:30:00.665Z,60.91
2023-06-20T00:35:00.778Z,60.42
2023-06-20T00:40:00.582Z,60.56
2023-06-20T00:45:00.909Z,60.95
2023-06-20T00:50:00.720Z,60.27
2023-06-20T00:55:00.593Z,60.24
2023-06-20T01:00:01.076Z,59.92
2023-06-20T01:05:00.716Z,60.14
2023-06-20T01:10:11.307Z,60.72
2023-06-20T01:15:09.767Z,60.91
2023-06-20T01:20:10.534Z,60.98
2023-06-20T01:25:05.132Z,60.84
2023-06-20T01:30:08.934Z,61.01
2023-06-20T01:35:08.691Z,61.09
2023-06-20T01:40:02.815Z,60.13
2023-06-20T01:45:04.275Z,60.22
2023-06-20T01:50:02.555Z,60.93
2023-06-20T01:55:03.655Z,60.47
2023-06-20T02:00:02.904Z,60.06
2023-06-20T02:05:02.505Z,60.12
2023-06-20T02:10:01.725Z,60.33
2023-06-20T02:15:00.974Z,60.21
2023-06-20T02:20:00.840Z,59.85
2023-06-20T02:25:06.266Z,60.13
2023-06-20T02:30:03.105Z,60.11
2023-06-20T02:35:02.360Z,60.18
2023-06-20T02:40:00.784Z,60.09
2023-06-20T02:45:01.058Z,60.27
2023-06-20T02:50:10.525Z,59.83
2023-06-20T02:55:10.872Z,60.03
2023-06-20T03:00:04.663Z,59.93
2023-06-20T03:05:03.560Z,60.81
2023-06-20T03:10:01.343Z,61.68
2023-06-20T03:15:00.587Z,61.20
2023-06-20T03:20:03.134Z,61.46
2023-06-20T03:25:00.616Z,61.78
2023-06-20T03:30:03.013Z,61.96
2023-06-20T03:35:00.574Z,62.80
2023-06-20T03:40:00.567Z,62.00
2023-06-20T03:45:00.596Z,61.74
2023-06-20T03:50:00.605Z,61.61
2023-06-20T03:55:00.565Z,61.46
2023-06-20T04:00:02.639Z,61.34
2023-06-20T04:05:00.679Z,61.53
2023-06-20T04:10:00.566Z,61.41
2023-06-20T04:15:00.578Z,61.84
2023-06-20T04:20:00.590Z,61.33
2023-06-20T04:25:00.631Z,61.22
2023-06-20T04:30:00.579Z,62.05
2023-06-20T04:35:00.541Z,62.63
2023-06-20T04:40:00.586Z,62.29
2023-06-20T04:45:00.552Z,62.83
2023-06-20T04:50:00.579Z,61.93
2023-06-20T04:55:00.577Z,62.04
2023-06-20T05:00:00.986Z,61.71
2023-06-20T05:05:00.546Z,62.23
2023-06-20T05:10:00.596Z,60.84
2023-06-20T05:15:00.563Z,61.26
2023-06-20T05:20:00.543Z,61.49
2023-06-20T05:25:00.633Z,60.85
2023-06-20T05:30:00.543Z,60.47
2023-06-20T05:35:00.923Z,61.28
2023-06-20T05:40:01.618Z,59.74
2023-06-20T05:45:00.674Z,59.94
2023-06-20T05:50:00.665Z,58.12
2023-06-20T05:55:00.668Z,57.33
2023-06-20T06:00:01.796Z,57.29
2023-06-20T06:05:00.660Z,56.52
2023-06-20T06:10:01.759Z,54.51
2023-06-20T06:15:00.566Z,54.98
2023-06-20T06:20:00.790Z,53.96
2023-06-20T06:25:00.536Z,53.52
2023-06-20T06:30:01.056Z,52.60
2023-06-20T06:35:01.026Z,52.16
2023-06-20T06:40:01.500Z,51.42
2023-06-20T06:45:00.968Z,52.49
2023-06-20T06:50:00.574Z,52.40
2023-06-20T06:55:00.775Z,52.41
2023-06-20T07:00:01.015Z,53.37
2023-06-20T07:05:00.623Z,53.62
2023-06-20T07:10:00.582Z,54.81
2023-06-20T07:15:00.582Z,55.22
2023-06-20T07:20:00.582Z,55.16
2023-06-20T07:25:00.652Z,56.05
2023-06-20T07:30:00.584Z,55.45
2023-06-20T07:35:00.578Z,53.20
2023-06-20T07:40:01.018Z,54.04
2023-06-20T07:45:00.624Z,49.69
2023-06-20T07:50:00.581Z,48.77
2023-06-20T07:55:00.588Z,48.40
2023-06-20T08:00:00.822Z,48.45
2023-06-20T08:05:00.559Z,44.85
2023-06-20T08:10:00.823Z,47.59
2023-06-20T08:15:00.543Z,46.85
2023-06-20T08:20:00.763Z,47.24
2023-06-20T08:25:00.762Z,45.77
2023-06-20T08:30:00.700Z,44.74
2023-06-20T08:35:00.591Z,43.83
2023-06-20T08:40:00.664Z,45.47
2023-06-20T08:45:01.124Z,43.36
2023-06-20T08:50:00.869Z,45.56
2023-06-20T08:55:01.170Z,44.60
2023-06-20T09:00:00.822Z,45.25
2023-06-20T09:05:02.201Z,44.33
2023-06-20T09:10:01.242Z,43.66
2023-06-20T09:15:00.648Z,42.91
2023-06-20T09:20:00.977Z,43.62
2023-06-20T09:25:04.363Z,43.95
2023-06-20T09:30:00.573Z,44.41
2023-06-20T09:35:03.476Z,42.66
2023-06-20T09:40:05.027Z,43.75
2023-06-20T09:45:00.614Z,43.27
2023-06-20T09:50:04.766Z,43.95
2023-06-20T09:55:04.397Z,44.48
2023-06-20T10:00:01.971Z,43.40
2023-06-20T10:05:01.244Z,44.52
2023-06-20T10:10:01.465Z,42.46
2023-06-20T10:15:03.079Z,43.18
2023-06-20T10:20:00.867Z,41.84
2023-06-20T10:25:01.754Z,42.38
2023-06-20T10:30:00.555Z,40.29
2023-06-20T10:35:05.411Z,41.62
2023-06-20T10:40:00.594Z,40.27
2023-06-20T10:45:19.896Z,40.90
2023-06-20T10:50:00.647Z,39.97
2023-06-20T10:55:00.581Z,40.06
2023-06-20T11:00:05.312Z,40.83
2023-06-20T11:05:01.196Z,40.56
2023-06-20T11:10:13.780Z,36.33
2023-06-20T11:15:20.454Z,37.83
2023-06-20T11:20:00.662Z,38.43
2023-06-20T11:25:00.544Z,39.61
2023-06-20T11:30:00.576Z,35.76
2023-06-20T11:35:00.864Z,39.82
2023-06-20T11:40:00.719Z,36.92
2023-06-20T11:45:11.050Z,36.74
2023-06-20T11:50:00.589Z,34.25
2023-06-20T11:55:00.555Z,35.43
2023-06-20T12:00:01.065Z,34.90
2023-06-20T12:05:02.970Z,34.32
2023-06-20T12:10:08.254Z,32.91
2023-06-20T12:15:00.561Z,32.99
2023-06-20T12:20:00.574Z,37.40
2023-06-20T12:25:00.543Z,32.26
2023-06-20T12:30:00.585Z,33.08
2023-06-20T12:35:00.626Z,33.24
2023-06-20T12:40:00.561Z,31.51
2023-06-20T12:45:00.657Z,30.50
2023-06-20T12:50:00.592Z,30.36
2023-06-20T12:55:00.653Z,34.17
2023-06-20T13:00:01.739Z,31.75
2023-06-20T13:05:01.114Z,31.74
2023-06-20T13:10:00.637Z,32.59
2023-06-20T13:15:07.606Z,32.40
2023-06-20T13:20:00.584Z,31.75
2023-06-20T13:25:00.668Z,32.24
2023-06-20T13:30:00.608Z,31.18
2023-06-20T13:35:00.553Z,29.66
2023-06-20T13:40:00.571Z,28.98
2023-06-20T13:45:00.578Z,28.01
2023-06-20T13:50:00.573Z,28.53
2023-06-20T13:55:00.962Z,29.00
2023-06-20T14:00:02.391Z,29.08
2023-06-20T14:05:00.546Z,29.71
2023-06-20T14:10:01.968Z,31.96
2023-06-20T14:15:00.793Z,33.08
2023-06-20T14:20:00.626Z,34.46
2023-06-20T14:25:00.597Z,35.49
2023-06-20T14:30:00.708Z,36.58
2023-06-20T14:35:00.606Z,36.44
2023-06-20T14:40:00.630Z,36.66
2023-06-20T14:45:00.594Z,37.31
2023-06-20T14:50:00.580Z,37.59
2023-06-20T14:55:00.548Z,38.41
2023-06-20T15:00:00.934Z,40.05
2023-06-20T15:05:01.245Z,46.86
2023-06-20T15:10:01.064Z,62.24
2023-06-20T15:15:00.632Z,78.27
2023-06-20T15:20:00.667Z,86.57
2023-06-20T15:25:00.600Z,88.90
2023-06-20T15:30:00.645Z,89.62
2023-06-20T15:35:00.606Z,90.32
2023-06-20T15:40:00.704Z,91.03
2023-06-20T15:45:00.634Z,93.62
2023-06-20T15:50:01.490Z,95.15
2023-06-20T15:55:00.549Z,97.22
2023-06-20T16:00:02.097Z,96.21
2023-06-20T16:05:00.616Z,94.75
2023-06-20T16:10:00.706Z,95.80
2023-06-20T16:15:00.690Z,97.42
2023-06-20T16:20:00.562Z,100.00
2023-06-20T16:25:00.672Z,100.00
2023-06-20T16:30:00.608Z,100.00
2023-06-20T16:35:00.560Z,100.00
2023-06-20T16:40:00.634Z,100.00
2023-06-20T16:45:00.975Z,100.00
2023-06-20T16:50:00.602Z,100.00
2023-06-20T16:55:00.582Z,100.00
2023-06-20T17:00:00.969Z,100.00
2023-06-20T17:05:00.683Z,100.00
2023-06-20T17:10:00.581Z,98.72
2023-06-20T17:15:00.703Z,97.97
2023-06-20T17:20:00.568Z,98.39
2023-06-20T17:25:00.646Z,100.00
2023-06-20T17:30:00.705Z,98.11
2023-06-20T17:35:00.653Z,98.88
2023-06-20T17:40:00.562Z,98.08
2023-06-20T17:45:01.223Z,98.85
2023-06-20T17:50:00.826Z,98.40
2023-06-20T17:55:00.575Z,97.50
2023-06-20T18:00:01.869Z,98.65
2023-06-20T18:05:00.605Z,97.24
2023-06-20T18:10:00.607Z,95.78
2023-06-20T18:15:00.775Z,96.71
2023-06-20T18:20:00.741Z,96.48
2023-06-20T18:25:00.556Z,97.17
2023-06-20T18:30:00.579Z,97.92
2023-06-20T18:35:00.735Z,98.13
2023-06-20T18:40:00.676Z,95.58
2023-06-20T18:45:00.569Z,95.58
2023-06-20T18:50:00.610Z,96.18
2023-06-20T18:55:00.600Z,96.57
2023-06-20T19:00:02.243Z,95.84
2023-06-20T19:05:01.276Z,95.65
2023-06-20T19:10:00.639Z,96.29
2023-06-20T19:15:00.619Z,96.37
2023-06-20T19:20:00.568Z,97.84
2023-06-20T19:25:00.894Z,97.29
2023-06-20T19:30:00.596Z,96.80
2023-06-20T19:35:00.984Z,97.14
2023-06-20T19:40:02.615Z,97.30
2023-06-20T19:45:00.734Z,97.19
2023-06-20T19:50:00.583Z,98.23
2023-06-20T19:55:00.606Z,98.08
2023-06-20T20:00:01.757Z,99.32
2023-06-20T20:05:00.697Z,98.75
2023-06-20T20:10:00.736Z,98.91
2023-06-20T20:15:00.576Z,98.47
2023-06-20T20:20:00.625Z,97.50
2023-06-20T20:30:00.663Z,97.64
2023-06-20T20:35:00.573Z,98.06
2023-06-20T20:40:00.738Z,98.42
2023-06-20T20:45:00.652Z,98.47
2023-06-20T20:50:00.723Z,98.74
2023-06-20T20:55:00.571Z,99.07
2023-06-20T21:00:01.790Z,99.75
2023-06-20T21:05:00.585Z,100.00
2023-06-20T21:10:00.585Z,100.00
2023-06-20T21:15:00.576Z,100.00
2023-06-20T21:20:00.629Z,100.00
2023-06-20T21:25:01.447Z,100.00
2023-06-20T21:30:00.625Z,100.00
2023-06-20T21:35:00.634Z,100.00
2023-06-20T21:40:00.578Z,100.00
2023-06-20T21:45:00.562Z,100.00
2023-06-20T21:50:00.623Z,100.00
2023-06-20T21:55:00.570Z,100.00
2023-06-20T22:00:02.248Z,100.00
2023-06-20T22:05:00.576Z,100.00
2023-06-20T22:10:04.406Z,100.00
2023-06-20T22:15:01.146Z,100.00
2023-06-20T22:20:00.573Z,100.00
2023-06-20T22:25:00.695Z,100.00
2023-06-20T22:30:00.937Z,100.00
2023-06-20T22:35:00.831Z,100.00
2023-06-20T22:40:00.618Z,100.00
2023-06-20T22:45:00.691Z,100.00
2023-06-20T22:50:00.692Z,100.00
2023-06-20T22:55:00.656Z,100.00
2023-06-20T23:00:02.455Z,100.00
2023-06-20T23:05:00.568Z,100.00
2023-06-20T23:10:00.575Z,100.00
2023-06-20T23:15:00.659Z,100.00
2023-06-20T23:20:00.580Z,100.00
2023-06-20T23:25:00.565Z,100.00
2023-06-20T23:30:00.562Z,100.00
2023-06-20T23:35:00.622Z,100.00
2023-06-20T23:40:00.926Z,100.00
2023-06-20T23:45:00.548Z,100.00
2023-06-20T23:50:00.829Z,100.00
2023-06-20T23:55:00.591Z,100.00
